In Rescue
 
Open Full Screen Window  High Contrast Mode
Wind Gusting 00 knots
06
July 25, 2021 9:06 AM EDT
Weather Information
Wind Direction
  270 °
Wind Speed
  06 kt (7 mph)
Wind Gust
  00 kt (0 mph)
Altimeter
29.93 in
Visibility
10 SM
Temperature
23° C
73° F
Dewpoint
21° C
70° F
Humidity
89%
Sky Condition
Clear
VFR

METAR KTEW 251306Z AUTO 27006KT 10SM CLR 23/21 A2993 RMK AO2 T02260206

FAA Disclaimer: The data displayed is for advisory purposes only and is not to be used for flight planning or operations.